Time;durP1;ratioP1;P1;durP2;ratioP2;P2;SDS_P1;SDS_P2;PMS_P1;PMS_P2;Temp;Humidity;BMP_temperature;BMP_pressure;BME280_temperature;BME280_humidity;BME280_pressure;Samples;Min_cycle;Max_cycle;Signal;HPM_P1;HPM_P2
2022/04/01 00:01:02;;;;;;;;;14.75;12.25;;;;;;;;5080319;27;51021;-60
2022/04/01 00:03:50;;;;;;;;;11.50;9.75;;;;;;;;5080163;27;51263;-62
2022/04/01 00:06:34;;;;;;;;;12.75;8.25;;;;;;;;5078816;27;51093;-62
2022/04/01 00:09:19;;;;;;;;;13.25;8.25;;;;;;;;5079564;27;51082;-63
2022/04/01 00:12:10;;;;;;;;;12.50;11.00;;;;;;;;5080410;27;51331;-62
2022/04/01 00:14:56;;;;;;;;;17.00;14.00;;;;;;;;5080183;27;51041;-60
2022/04/01 00:17:51;;;;;;;;;19.00;14.25;;;;;;;;5080155;27;51203;-62
2022/04/01 00:20:42;;;;;;;;;20.75;13.25;;;;;;;;5080658;27;51198;-59
2022/04/01 00:23:33;;;;;;;;;15.50;13.25;;;;;;;;5080495;27;51358;-60
2022/04/01 00:26:19;;;;;;;;;20.25;13.25;;;;;;;;5080173;27;51196;-61
2022/04/01 00:29:14;;;;;;;;;17.75;11.50;;;;;;;;5079291;27;51098;-59
2022/04/01 00:32:00;;;;;;;;;17.50;12.75;;;;;;;;5080056;27;51417;-61
2022/04/01 00:34:45;;;;;;;;;18.25;12.50;;;;;;;;5079820;27;51070;-62
2022/04/01 00:37:36;;;;;;;;;26.50;14.00;;;;;;;;5080104;27;51090;-58
2022/04/01 00:40:26;;;;;;;;;18.00;12.00;;;;;;;;5080305;27;51056;-62
2022/04/01 00:43:13;;;;;;;;;20.75;11.25;;;;;;;;5078733;27;51473;-62
2022/04/01 00:46:14;;;;;;;;;14.75;12.50;;;;;;;;5079604;27;51160;-62
2022/04/01 00:49:03;;;;;;;;;19.25;13.00;;;;;;;;5079354;27;51536;-63
2022/04/01 00:51:50;;;;;;;;;16.75;10.00;;;;;;;;5074766;27;51212;-62
2022/04/01 00:54:37;;;;;;;;;20.75;12.75;;;;;;;;5079921;27;51107;-61
2022/04/01 00:57:31;;;;;;;;;15.75;12.50;;;;;;;;5079775;27;51576;-62
2022/04/01 01:00:17;;;;;;;;;15.75;13.25;;;;;;;;5080118;27;51133;-61
2022/04/01 01:03:03;;;;;;;;;17.75;12.00;;;;;;;;5079778;27;51011;-60
2022/04/01 01:05:48;;;;;;;;;19.50;12.50;;;;;;;;5080016;27;51031;-59
2022/04/01 01:08:33;;;;;;;;;18.00;12.50;;;;;;;;5078927;27;51501;-58
2022/04/01 01:11:19;;;;;;;;;16.50;13.25;;;;;;;;5078969;27;51129;-61
2022/04/01 01:14:08;;;;;;;;;16.25;13.00;;;;;;;;5078188;27;51204;-59
2022/04/01 01:16:58;;;;;;;;;19.00;15.00;;;;;;;;5079184;27;51203;-59
2022/04/01 01:19:46;;;;;;;;;25.25;14.25;;;;;;;;5079263;27;51067;-60
2022/04/01 01:22:32;;;;;;;;;20.00;13.00;;;;;;;;5079471;27;51393;-59
2022/04/01 01:25:38;;;;;;;;;15.25;12.00;;;;;;;;5079326;27;51011;-61
2022/04/01 01:28:27;;;;;;;;;20.50;13.50;;;;;;;;5079787;27;51440;-59
2022/04/01 01:31:11;;;;;;;;;16.00;12.00;;;;;;;;5079073;27;51067;-62
2022/04/01 01:33:56;;;;;;;;;18.75;14.00;;;;;;;;5078099;28;51326;-63
2022/04/01 01:36:45;;;;;;;;;18.25;13.00;;;;;;;;5079012;28;51169;-62
2022/04/01 01:39:31;;;;;;;;;18.75;14.50;;;;;;;;5079733;27;51517;-62
2022/04/01 01:42:15;;;;;;;;;22.00;14.50;;;;;;;;5077831;28;51160;-58
2022/04/01 01:45:06;;;;;;;;;16.75;13.00;;;;;;;;5079779;28;51105;-60
2022/04/01 01:47:51;;;;;;;;;16.50;11.50;;;;;;;;5079209;28;51112;-60
2022/04/01 01:57:21;;;;;;;;;14.25;12.00;;;;;;;;5076843;27;51084;-59
2022/04/01 02:00:12;;;;;;;;;11.25;8.50;;;;;;;;5079166;27;51081;-60
2022/04/01 02:02:59;;;;;;;;;17.00;12.75;;;;;;;;5079096;27;51116;-64
2022/04/01 02:05:56;;;;;;;;;20.25;13.00;;;;;;;;5079593;27;51126;-62
2022/04/01 02:08:42;;;;;;;;;19.75;12.25;;;;;;;;5079342;28;51259;-60
2022/04/01 02:11:33;;;;;;;;;20.25;15.00;;;;;;;;5076492;28;51158;-60
2022/04/01 02:14:19;;;;;;;;;20.25;14.50;;;;;;;;5078704;27;51521;-59
2022/04/01 02:17:06;;;;;;;;;16.75;13.00;;;;;;;;5078103;28;51136;-61
2022/04/01 02:19:52;;;;;;;;;16.25;12.75;;;;;;;;5079376;27;51091;-61
2022/04/01 02:22:39;;;;;;;;;22.75;14.00;;;;;;;;5079911;27;51115;-63
2022/04/01 02:25:25;;;;;;;;;19.25;16.25;;;;;;;;5082990;27;51149;-59
2022/04/01 02:28:15;;;;;;;;;15.75;13.25;;;;;;;;5082117;27;51105;-61
2022/04/01 02:31:11;;;;;;;;;17.00;11.75;;;;;;;;5082594;27;51189;-62
2022/04/01 02:33:56;;;;;;;;;14.50;11.25;;;;;;;;5080807;27;51143;-63
2022/04/01 02:36:41;;;;;;;;;18.50;14.75;;;;;;;;5082458;27;51157;-61
2022/04/01 02:39:32;;;;;;;;;13.00;10.50;;;;;;;;5082393;27;51549;-61
2022/04/01 02:42:17;;;;;;;;;25.75;14.75;;;;;;;;5082306;27;51079;-62
2022/04/01 02:45:02;;;;;;;;;21.00;15.00;;;;;;;;5081982;27;51248;-62
2022/04/01 02:47:53;;;;;;;;;17.75;13.75;;;;;;;;5079718;27;51414;-59
2022/04/01 02:50:38;;;;;;;;;18.25;11.00;;;;;;;;5079720;27;51448;-64
2022/04/01 02:53:24;;;;;;;;;17.00;10.25;;;;;;;;5081733;27;51292;-61
2022/04/01 02:56:23;;;;;;;;;18.50;11.75;;;;;;;;5080477;27;51105;-62
2022/04/01 02:59:11;;;;;;;;;17.25;12.25;;;;;;;;5079837;27;51027;-61
2022/04/01 03:01:57;;;;;;;;;16.75;13.50;;;;;;;;5079142;27;51119;-59
2022/04/01 03:04:42;;;;;;;;;19.75;13.00;;;;;;;;5080395;27;51527;-61
2022/04/01 03:07:33;;;;;;;;;20.50;15.00;;;;;;;;5081409;27;51150;-63
2022/04/01 03:10:23;;;;;;;;;20.00;13.25;;;;;;;;5076960;27;51199;-62
2022/04/01 03:13:09;;;;;;;;;24.75;17.00;;;;;;;;5082593;27;51110;-59
2022/04/01 03:16:06;;;;;;;;;21.25;13.00;;;;;;;;5077182;27;51488;-61
2022/04/01 03:18:57;;;;;;;;;20.75;13.50;;;;;;;;5081646;27;51208;-61
2022/04/01 03:22:02;;;;;;;;;15.75;11.75;;;;;;;;5078458;27;51419;-59
2022/04/01 03:24:51;;;;;;;;;18.00;12.50;;;;;;;;5081401;27;51067;-60
2022/04/01 03:27:55;;;;;;;;;19.25;16.25;;;;;;;;5079356;27;51086;-61
2022/04/01 03:30:40;;;;;;;;;17.25;14.75;;;;;;;;5081747;27;51411;-59
2022/04/01 03:33:25;;;;;;;;;20.75;14.00;;;;;;;;5081223;27;51425;-59
2022/04/01 03:36:13;;;;;;;;;17.75;12.75;;;;;;;;5081123;27;51124;-61
2022/04/01 03:39:07;;;;;;;;;15.00;12.75;;;;;;;;5080103;27;51174;-61
2022/04/01 03:42:06;;;;;;;;;19.75;14.25;;;;;;;;5078568;27;51422;-61
2022/04/01 03:44:51;;;;;;;;;15.25;12.25;;;;;;;;5076293;27;51047;-61
2022/04/01 03:47:42;;;;;;;;;22.00;15.00;;;;;;;;5080640;27;51078;-59
2022/04/01 03:50:34;;;;;;;;;22.25;11.25;;;;;;;;5080712;27;51119;-59
2022/04/01 03:53:23;;;;;;;;;27.75;18.00;;;;;;;;5080249;27;51100;-61
2022/04/01 03:56:11;;;;;;;;;29.25;18.75;;;;;;;;5080534;27;51172;-61
2022/04/01 03:58:59;;;;;;;;;19.25;13.50;;;;;;;;5080850;27;51003;-60
2022/04/01 04:02:06;;;;;;;;;23.50;16.00;;;;;;;;5080381;27;51089;-62
2022/04/01 04:04:54;;;;;;;;;22.25;16.00;;;;;;;;5081066;27;51200;-62
2022/04/01 04:07:51;;;;;;;;;16.00;14.50;;;;;;;;5080735;27;51421;-60
2022/04/01 04:10:38;;;;;;;;;18.25;15.50;;;;;;;;5078731;27;51075;-61
2022/04/01 04:13:25;;;;;;;;;19.25;14.25;;;;;;;;5079713;27;51058;-62
2022/04/01 04:16:15;;;;;;;;;15.50;14.00;;;;;;;;5079642;27;51040;-60
2022/04/01 04:19:10;;;;;;;;;29.50;15.00;;;;;;;;5079179;27;50996;-60
2022/04/01 04:22:14;;;;;;;;;19.25;14.00;;;;;;;;5077775;27;51022;-62
2022/04/01 04:25:10;;;;;;;;;16.75;14.00;;;;;;;;5078461;27;51135;-60
2022/04/01 04:28:08;;;;;;;;;24.00;13.00;;;;;;;;5078893;27;51066;-61
2022/04/01 04:31:00;;;;;;;;;21.25;15.50;;;;;;;;5073791;27;51275;-60
2022/04/01 04:33:46;;;;;;;;;24.25;14.00;;;;;;;;5079274;27;51118;-62
2022/04/01 04:36:38;;;;;;;;;19.75;15.50;;;;;;;;5076101;27;51106;-60
2022/04/01 04:39:33;;;;;;;;;19.50;16.75;;;;;;;;5078854;27;51539;-63
2022/04/01 04:42:21;;;;;;;;;18.75;13.00;;;;;;;;5078690;27;51195;-60
2022/04/01 04:45:07;;;;;;;;;20.00;15.50;;;;;;;;5075775;27;51172;-61
2022/04/01 04:47:52;;;;;;;;;20.50;16.00;;;;;;;;5078639;27;51453;-61
2022/04/01 04:50:39;;;;;;;;;19.25;19.00;;;;;;;;5077762;27;51051;-60
2022/04/01 04:53:27;;;;;;;;;27.25;15.00;;;;;;;;5079820;27;51126;-59
2022/04/01 04:56:11;;;;;;;;;21.50;14.75;;;;;;;;5084388;27;51261;-61
2022/04/01 04:59:06;;;;;;;;;17.50;14.00;;;;;;;;5079543;27;51475;-62
2022/04/01 05:01:56;;;;;;;;;20.75;14.00;;;;;;;;5079524;27;51308;-62
2022/04/01 05:05:19;;;;;;;;;17.25;14.75;;;;;;;;5078848;27;51435;-62
2022/04/01 05:08:27;;;;;;;;;18.75;13.50;;;;;;;;5077957;27;51218;-61
2022/04/01 05:11:32;;;;;;;;;23.25;16.00;;;;;;;;5078630;27;51154;-62
2022/04/01 05:14:26;;;;;;;;;19.00;15.00;;;;;;;;5078447;27;51205;-62
2022/04/01 05:17:25;;;;;;;;;21.75;16.00;;;;;;;;5079590;27;51140;-62
2022/04/01 05:20:23;;;;;;;;;21.50;16.25;;;;;;;;5079019;27;51093;-59
2022/04/01 05:23:24;;;;;;;;;25.00;16.75;;;;;;;;5079672;27;51136;-61
2022/04/01 05:26:22;;;;;;;;;15.25;13.00;;;;;;;;5079291;27;51455;-63
2022/04/01 05:29:18;;;;;;;;;22.75;15.75;;;;;;;;5075132;27;52549;-62
2022/04/01 05:32:20;;;;;;;;;15.50;14.25;;;;;;;;5078840;28;51101;-59
2022/04/01 05:35:06;;;;;;;;;17.75;13.25;;;;;;;;5078393;28;51034;-61
2022/04/01 05:37:51;;;;;;;;;22.50;15.00;;;;;;;;5075477;27;51144;-59
2022/04/01 05:40:37;;;;;;;;;23.25;16.50;;;;;;;;5072427;27;51148;-61
2022/04/01 05:43:22;;;;;;;;;29.50;18.50;;;;;;;;5072552;27;51155;-60
2022/04/01 05:46:06;;;;;;;;;22.50;17.25;;;;;;;;5062062;28;51574;-61
2022/04/01 05:48:52;;;;;;;;;25.75;16.00;;;;;;;;5064392;28;51050;-61
2022/04/01 05:51:37;;;;;;;;;20.75;17.50;;;;;;;;5067425;28;51449;-61
2022/04/01 05:54:34;;;;;;;;;19.00;14.75;;;;;;;;5064690;27;51000;-62
2022/04/01 05:57:24;;;;;;;;;30.25;19.00;;;;;;;;5083724;27;51118;-61
2022/04/01 06:00:12;;;;;;;;;19.50;18.25;;;;;;;;5080188;27;51093;-60
2022/04/01 06:03:17;;;;;;;;;33.50;22.75;;;;;;;;5083066;27;51105;-48
2022/04/01 06:06:36;;;;;;;;;33.75;25.00;;;;;;;;5083394;27;51164;-50
2022/04/01 06:09:49;;;;;;;;;29.25;23.75;;;;;;;;5057285;27;51113;-50
2022/04/01 06:12:40;;;;;;;;;34.25;24.00;;;;;;;;5081926;27;51587;-50
2022/04/01 06:15:30;;;;;;;;;25.00;18.50;;;;;;;;5081424;27;51192;-54
2022/04/01 06:18:32;;;;;;;;;32.25;25.25;;;;;;;;5083011;27;51148;-51
2022/04/01 06:21:25;;;;;;;;;34.00;23.75;;;;;;;;5078034;27;50979;-50
2022/04/01 06:24:12;;;;;;;;;32.75;26.50;;;;;;;;5082859;27;51625;-50
2022/04/01 06:27:08;;;;;;;;;40.50;33.25;;;;;;;;5082736;27;51078;-49
2022/04/01 06:30:17;;;;;;;;;24.25;18.25;;;;;;;;5082934;27;51065;-50
2022/04/01 06:33:23;;;;;;;;;26.50;20.25;;;;;;;;5081975;27;51098;-47
2022/04/01 06:36:14;;;;;;;;;31.50;26.00;;;;;;;;5081655;27;51627;-49
2022/04/01 06:39:03;;;;;;;;;32.00;24.25;;;;;;;;5082395;27;51232;-52
2022/04/01 06:41:53;;;;;;;;;39.75;30.75;;;;;;;;5082787;27;51106;-51
2022/04/01 06:44:39;;;;;;;;;33.25;29.50;;;;;;;;5082665;27;51089;-51
2022/04/01 06:47:25;;;;;;;;;35.50;26.50;;;;;;;;5082310;27;51246;-53
2022/04/01 06:50:10;;;;;;;;;30.25;26.50;;;;;;;;5081469;27;51482;-49
2022/04/01 06:52:57;;;;;;;;;33.50;24.50;;;;;;;;5082206;27;51100;-49
2022/04/01 06:55:41;;;;;;;;;18.25;15.75;;;;;;;;5082253;27;51356;-50
2022/04/01 06:58:30;;;;;;;;;16.50;12.75;;;;;;;;5081936;27;51465;-48
2022/04/01 07:01:16;;;;;;;;;17.75;13.75;;;;;;;;5082368;27;51516;-48
2022/04/01 07:04:05;;;;;;;;;19.50;14.00;;;;;;;;5078120;27;51105;-52
2022/04/01 07:06:50;;;;;;;;;20.00;15.50;;;;;;;;5081512;27;51101;-48
2022/04/01 07:09:40;;;;;;;;;21.75;20.50;;;;;;;;5082157;27;51094;-51
2022/04/01 07:12:25;;;;;;;;;35.00;28.75;;;;;;;;5081623;27;51233;-50
2022/04/01 07:15:26;;;;;;;;;27.50;21.75;;;;;;;;5082043;27;51518;-49
2022/04/01 07:18:15;;;;;;;;;30.00;24.75;;;;;;;;5081914;27;51159;-50
2022/04/01 07:21:02;;;;;;;;;19.75;14.50;;;;;;;;5076705;27;51218;-51
2022/04/01 07:23:46;;;;;;;;;18.75;14.25;;;;;;;;5080998;27;51444;-48
2022/04/01 07:26:32;;;;;;;;;19.75;12.25;;;;;;;;5080921;27;51980;-49
2022/04/01 07:29:16;;;;;;;;;22.75;15.00;;;;;;;;5081011;27;51095;-52
2022/04/01 07:35:11;;;;;;;;;22.50;15.25;;;;;;;;5076149;27;51131;-48
2022/04/01 07:37:58;;;;;;;;;15.75;11.50;;;;;;;;5068660;27;51284;-52
2022/04/01 07:40:44;;;;;;;;;22.00;12.00;;;;;;;;5081184;27;51157;-49
2022/04/01 07:43:37;;;;;;;;;21.75;9.25;;;;;;;;5079719;27;51208;-50
2022/04/01 07:46:34;;;;;;;;;12.00;7.75;;;;;;;;5080203;27;51119;-49
2022/04/01 07:49:20;;;;;;;;;13.50;10.00;;;;;;;;5080451;27;51278;-49
2022/04/01 07:52:27;;;;;;;;;18.75;8.50;;;;;;;;5080479;27;51317;-51
2022/04/01 07:55:14;;;;;;;;;17.75;12.50;;;;;;;;5079815;27;51062;-49
2022/04/01 07:58:00;;;;;;;;;16.75;10.75;;;;;;;;5080885;27;51116;-47
2022/04/01 08:01:05;;;;;;;;;17.50;11.00;;;;;;;;5080397;27;51397;-48
2022/04/01 08:03:52;;;;;;;;;14.25;10.25;;;;;;;;5079953;27;51153;-49
2022/04/01 08:06:38;;;;;;;;;16.00;11.75;;;;;;;;5078693;27;51469;-49
2022/04/01 08:09:45;;;;;;;;;15.25;10.00;;;;;;;;5079719;27;51405;-48
2022/04/01 08:12:35;;;;;;;;;13.00;10.75;;;;;;;;5079019;27;51733;-51
2022/04/01 08:15:20;;;;;;;;;14.75;11.25;;;;;;;;5079863;27;51123;-51
2022/04/01 08:18:05;;;;;;;;;17.75;11.00;;;;;;;;5080076;27;51105;-47
2022/04/01 08:20:49;;;;;;;;;23.75;14.75;;;;;;;;5079665;27;51195;-50
2022/04/01 08:23:46;;;;;;;;;17.50;10.75;;;;;;;;5079058;27;51189;-50
2022/04/01 08:26:31;;;;;;;;;17.50;11.50;;;;;;;;5079527;27;51457;-50
2022/04/01 08:29:16;;;;;;;;;15.00;12.75;;;;;;;;5084721;27;51144;-51
2022/04/01 08:32:06;;;;;;;;;16.25;12.75;;;;;;;;5079848;27;51018;-48
2022/04/01 08:35:06;;;;;;;;;14.50;12.25;;;;;;;;5079105;27;51023;-48
2022/04/01 08:37:54;;;;;;;;;16.00;12.25;;;;;;;;5074069;27;51149;-51
2022/04/01 08:40:41;;;;;;;;;15.25;11.25;;;;;;;;5076899;27;51334;-49
2022/04/01 08:43:27;;;;;;;;;19.75;14.75;;;;;;;;5078970;27;51562;-49
2022/04/01 08:46:22;;;;;;;;;19.50;14.75;;;;;;;;5078985;27;51086;-52
2022/04/01 08:49:10;;;;;;;;;22.50;15.75;;;;;;;;5078920;27;51083;-51
2022/04/01 08:52:06;;;;;;;;;17.00;16.00;;;;;;;;5075529;27;51582;-49
2022/04/01 08:54:50;;;;;;;;;16.50;11.00;;;;;;;;5078166;27;51256;-48
2022/04/01 08:57:41;;;;;;;;;19.50;12.75;;;;;;;;5079336;27;51102;-50
2022/04/01 09:00:48;;;;;;;;;14.75;10.25;;;;;;;;5079261;27;51046;-49
2022/04/01 09:03:34;;;;;;;;;17.00;10.75;;;;;;;;5075790;27;51027;-49
2022/04/01 09:06:19;;;;;;;;;11.75;8.25;;;;;;;;5078510;27;51478;-50
2022/04/01 09:09:04;;;;;;;;;17.00;9.75;;;;;;;;5079085;27;51678;-47
2022/04/01 09:12:15;;;;;;;;;10.50;10.00;;;;;;;;5078808;27;51152;-49
2022/04/01 09:15:02;;;;;;;;;14.00;10.50;;;;;;;;5068325;27;51150;-50
2022/04/01 09:17:48;;;;;;;;;9.50;8.00;;;;;;;;5073080;27;51421;-48
2022/04/01 09:20:57;;;;;;;;;10.25;8.50;;;;;;;;5071935;27;51137;-50
2022/04/01 09:23:47;;;;;;;;;13.50;7.25;;;;;;;;5078216;27;51332;-47
2022/04/01 09:26:53;;;;;;;;;15.75;12.50;;;;;;;;5078636;27;51102;-50
2022/04/01 09:30:07;;;;;;;;;12.75;9.75;;;;;;;;5075017;27;51121;-47
2022/04/01 09:33:00;;;;;;;;;14.75;10.25;;;;;;;;5079016;28;51094;-48
2022/04/01 09:35:47;;;;;;;;;19.25;10.75;;;;;;;;5078571;28;51093;-49
2022/04/01 09:38:31;;;;;;;;;17.75;13.50;;;;;;;;5078461;28;51027;-47
2022/04/01 09:41:22;;;;;;;;;20.25;13.00;;;;;;;;5079395;28;51106;-47
2022/04/01 09:44:21;;;;;;;;;18.75;11.25;;;;;;;;5078357;28;51171;-51
2022/04/01 09:47:11;;;;;;;;;17.00;15.00;;;;;;;;5078504;28;51203;-50
2022/04/01 09:50:13;;;;;;;;;18.50;12.25;;;;;;;;5078452;28;51511;-49
2022/04/01 09:53:17;;;;;;;;;10.50;8.75;;;;;;;;5078294;28;51297;-48
2022/04/01 09:56:45;;;;;;;;;14.25;9.50;;;;;;;;5078957;27;50994;-47
2022/04/01 09:59:37;;;;;;;;;12.25;9.50;;;;;;;;5015746;28;51101;-49
2022/04/01 10:02:42;;;;;;;;;10.25;7.75;;;;;;;;5015719;28;51118;-53
2022/04/01 10:05:32;;;;;;;;;11.25;8.50;;;;;;;;5011046;28;51284;-50
2022/04/01 10:08:45;;;;;;;;;14.75;10.25;;;;;;;;5012364;28;51070;-49
2022/04/01 10:11:31;;;;;;;;;21.50;11.25;;;;;;;;5069659;28;51561;-48
2022/04/01 10:14:32;;;;;;;;;11.00;9.25;;;;;;;;5078653;28;51072;-50
2022/04/01 10:17:16;;;;;;;;;13.00;9.75;;;;;;;;5078714;28;51422;-49
2022/04/01 10:20:08;;;;;;;;;11.00;8.50;;;;;;;;5078129;28;51081;-52
2022/04/01 10:23:13;;;;;;;;;12.50;7.50;;;;;;;;5078283;28;50994;-50
2022/04/01 10:26:24;;;;;;;;;14.25;9.25;;;;;;;;5079037;28;51176;-52
2022/04/01 10:29:24;;;;;;;;;14.00;7.75;;;;;;;;5077713;27;51433;-51
2022/04/01 10:32:27;;;;;;;;;12.75;11.00;;;;;;;;5077627;28;51112;-49
2022/04/01 10:35:26;;;;;;;;;11.00;8.50;;;;;;;;5078243;28;51151;-47
2022/04/01 10:38:19;;;;;;;;;11.25;11.25;;;;;;;;5077233;28;51345;-49
2022/04/01 10:41:15;;;;;;;;;11.00;9.50;;;;;;;;5078022;27;51079;-51
2022/04/01 10:44:03;;;;;;;;;11.50;6.50;;;;;;;;5080089;27;51046;-50
2022/04/01 10:46:58;;;;;;;;;9.25;8.00;;;;;;;;5080489;27;51018;-50
2022/04/01 10:52:52;;;;;;;;;14.25;7.50;;;;;;;;5077896;27;51161;-51
2022/04/01 10:55:36;;;;;;;;;7.50;6.00;;;;;;;;5078843;27;51136;-51
2022/04/01 10:58:21;;;;;;;;;7.25;6.00;;;;;;;;5074880;27;51111;-50
2022/04/01 11:01:23;;;;;;;;;6.75;4.00;;;;;;;;5081409;27;51180;-48
2022/04/01 11:04:12;;;;;;;;;8.25;6.75;;;;;;;;5079277;27;51190;-49
2022/04/01 11:07:03;;;;;;;;;8.50;7.25;;;;;;;;5076230;27;51180;-48
2022/04/01 11:10:16;;;;;;;;;9.50;8.25;;;;;;;;5077360;27;51213;-49
2022/04/01 11:13:02;;;;;;;;;14.75;8.75;;;;;;;;5080051;27;51191;-50
2022/04/01 11:15:47;;;;;;;;;11.75;8.75;;;;;;;;5081527;27;51085;-50
2022/04/01 11:18:53;;;;;;;;;12.75;11.00;;;;;;;;5075522;27;51195;-51
2022/04/01 11:21:37;;;;;;;;;16.25;9.00;;;;;;;;5069345;27;51390;-51
2022/04/01 11:24:38;;;;;;;;;17.00;10.25;;;;;;;;5081135;27;51846;-48
2022/04/01 11:27:25;;;;;;;;;15.25;12.50;;;;;;;;5081210;27;51111;-50
2022/04/01 11:30:37;;;;;;;;;17.50;11.00;;;;;;;;5075077;27;51474;-48
2022/04/01 11:33:22;;;;;;;;;17.25;11.00;;;;;;;;5076202;27;51011;-51
2022/04/01 11:36:27;;;;;;;;;15.00;13.25;;;;;;;;5079800;27;51585;-49
2022/04/01 11:39:15;;;;;;;;;24.25;18.50;;;;;;;;5081287;27;51122;-50
2022/04/01 11:42:01;;;;;;;;;14.25;12.75;;;;;;;;5079446;27;51153;-49
2022/04/01 11:45:01;;;;;;;;;23.50;16.25;;;;;;;;5078484;27;51037;-48
2022/04/01 11:47:46;;;;;;;;;22.75;15.75;;;;;;;;5080850;27;51204;-50
2022/04/01 11:50:32;;;;;;;;;15.25;13.00;;;;;;;;5069196;27;51049;-51
2022/04/01 11:53:30;;;;;;;;;18.00;14.25;;;;;;;;5077909;27;51065;-49
2022/04/01 11:56:24;;;;;;;;;19.50;14.00;;;;;;;;5080753;27;51151;-50
2022/04/01 11:59:11;;;;;;;;;13.25;8.25;;;;;;;;5078556;27;51180;-53
2022/04/01 12:02:09;;;;;;;;;16.25;11.25;;;;;;;;5078611;27;51401;-51
2022/04/01 12:05:03;;;;;;;;;13.75;11.50;;;;;;;;5079323;27;51072;-52
2022/04/01 12:11:24;;;;;;;;;18.50;11.75;;;;;;;;5079435;27;51446;-48
2022/04/01 12:14:11;;;;;;;;;17.75;11.75;;;;;;;;5079576;27;51133;-49
2022/04/01 12:17:05;;;;;;;;;17.25;12.25;;;;;;;;5076739;27;50998;-48
2022/04/01 12:20:06;;;;;;;;;12.75;9.25;;;;;;;;5078059;27;51097;-51
2022/04/01 12:22:54;;;;;;;;;17.00;10.75;;;;;;;;5079622;27;51197;-51
2022/04/01 12:25:40;;;;;;;;;18.25;11.75;;;;;;;;5079948;27;51105;-51
2022/04/01 12:28:44;;;;;;;;;14.25;10.75;;;;;;;;5079667;27;51502;-50
2022/04/01 12:31:28;;;;;;;;;12.00;10.50;;;;;;;;5079492;27;51032;-52
2022/04/01 12:34:14;;;;;;;;;11.50;10.25;;;;;;;;5079715;27;51083;-49
2022/04/01 12:37:00;;;;;;;;;12.50;9.50;;;;;;;;5079453;27;51286;-48
2022/04/01 12:39:56;;;;;;;;;15.25;10.75;;;;;;;;5079303;27;51207;-49
2022/04/01 12:42:42;;;;;;;;;12.25;9.75;;;;;;;;5075146;27;51124;-54
2022/04/01 12:45:28;;;;;;;;;13.75;10.50;;;;;;;;5078898;27;51075;-50
2022/04/01 12:48:22;;;;;;;;;18.00;12.25;;;;;;;;5079660;27;51961;-48
2022/04/01 12:51:06;;;;;;;;;13.75;12.00;;;;;;;;5076353;27;51480;-51
2022/04/01 12:53:53;;;;;;;;;14.00;12.00;;;;;;;;5078694;27;51281;-48
2022/04/01 12:56:39;;;;;;;;;16.25;13.25;;;;;;;;5074817;27;51956;-50
2022/04/01 12:59:24;;;;;;;;;16.25;13.00;;;;;;;;5077566;27;51502;-48
2022/04/01 13:02:13;;;;;;;;;22.50;14.25;;;;;;;;5078482;27;51336;-51
2022/04/01 13:05:12;;;;;;;;;18.00;12.25;;;;;;;;5078200;27;51485;-50
2022/04/01 13:08:00;;;;;;;;;19.25;13.00;;;;;;;;5078688;27;51118;-50
2022/04/01 13:10:49;;;;;;;;;16.75;14.00;;;;;;;;5075249;27;51071;-50
2022/04/01 13:13:51;;;;;;;;;15.50;11.75;;;;;;;;5078950;27;51122;-50
2022/04/01 13:16:39;;;;;;;;;17.25;13.25;;;;;;;;5079461;27;51145;-49
2022/04/01 13:19:26;;;;;;;;;13.25;12.25;;;;;;;;5078519;27;51464;-49
2022/04/01 13:22:12;;;;;;;;;16.25;13.75;;;;;;;;5078956;27;50952;-50
2022/04/01 13:24:59;;;;;;;;;16.00;12.25;;;;;;;;5078718;27;51168;-51
2022/04/01 13:27:44;;;;;;;;;17.50;15.00;;;;;;;;5081670;27;51209;-47
2022/04/01 13:30:28;;;;;;;;;14.25;13.25;;;;;;;;5078791;27;51133;-49
2022/04/01 13:33:15;;;;;;;;;17.50;14.00;;;;;;;;5079112;28;51090;-49
2022/04/01 13:36:01;;;;;;;;;21.00;16.25;;;;;;;;5078755;28;51167;-48
2022/04/01 13:38:48;;;;;;;;;19.00;15.75;;;;;;;;5072227;28;51085;-49
2022/04/01 13:41:34;;;;;;;;;19.25;13.25;;;;;;;;5079152;28;51121;-49
2022/04/01 13:44:25;;;;;;;;;16.50;15.75;;;;;;;;5078689;28;51417;-49
2022/04/01 13:47:11;;;;;;;;;15.75;14.25;;;;;;;;5078951;28;51097;-52
2022/04/01 13:49:56;;;;;;;;;20.00;12.50;;;;;;;;5090283;27;51435;-51
2022/04/01 13:52:47;;;;;;;;;19.50;13.50;;;;;;;;5079208;28;51117;-49
2022/04/01 13:55:40;;;;;;;;;18.75;13.50;;;;;;;;5076736;28;53037;-51
2022/04/01 13:58:26;;;;;;;;;19.50;15.00;;;;;;;;5079146;28;51100;-53
2022/04/01 14:01:11;;;;;;;;;20.00;14.00;;;;;;;;5079011;28;51141;-49
2022/04/01 14:03:56;;;;;;;;;20.75;16.75;;;;;;;;5078356;27;51601;-51
2022/04/01 14:06:41;;;;;;;;;20.75;13.25;;;;;;;;5073215;28;51032;-51
2022/04/01 14:09:30;;;;;;;;;14.75;12.75;;;;;;;;5078660;28;51093;-50
2022/04/01 14:12:35;;;;;;;;;18.25;12.50;;;;;;;;5078353;28;51089;-48
2022/04/01 14:15:21;;;;;;;;;16.50;14.25;;;;;;;;5077815;28;51579;-48
2022/04/01 14:18:06;;;;;;;;;19.00;16.75;;;;;;;;5081997;27;51262;-53
2022/04/01 14:20:50;;;;;;;;;17.50;13.50;;;;;;;;5082695;27;51553;-49
2022/04/01 14:23:43;;;;;;;;;19.25;12.50;;;;;;;;5082184;27;51177;-48
2022/04/01 14:26:28;;;;;;;;;20.50;15.75;;;;;;;;5082293;27;51252;-51
2022/04/01 14:32:19;;;;;;;;;13.25;12.00;;;;;;;;5082406;27;51147;-50
2022/04/01 14:35:07;;;;;;;;;15.50;13.00;;;;;;;;5081846;27;51514;-48
2022/04/01 14:38:03;;;;;;;;;19.50;15.00;;;;;;;;5081850;27;50995;-50
2022/04/01 14:40:49;;;;;;;;;23.00;13.00;;;;;;;;5081511;27;51119;-49
2022/04/01 14:43:34;;;;;;;;;22.25;17.25;;;;;;;;5081288;27;51178;-48
2022/04/01 14:46:19;;;;;;;;;18.50;14.25;;;;;;;;5082048;27;51219;-49
2022/04/01 14:49:04;;;;;;;;;18.00;13.50;;;;;;;;5081780;27;51183;-50
2022/04/01 14:51:50;;;;;;;;;15.75;13.25;;;;;;;;5075623;27;51143;-49
2022/04/01 14:54:38;;;;;;;;;14.50;14.25;;;;;;;;5072496;27;51483;-50
2022/04/01 14:57:27;;;;;;;;;17.00;14.50;;;;;;;;5079320;27;51105;-48
2022/04/01 15:00:15;;;;;;;;;21.00;16.25;;;;;;;;5073134;27;51080;-48
2022/04/01 15:03:01;;;;;;;;;20.25;12.50;;;;;;;;5068909;27;51105;-50
2022/04/01 15:05:46;;;;;;;;;19.75;15.75;;;;;;;;5067843;27;51089;-50
2022/04/01 15:08:31;;;;;;;;;21.25;14.25;;;;;;;;5070494;27;51136;-51
2022/04/01 15:11:15;;;;;;;;;16.50;13.00;;;;;;;;5075634;27;51193;-49
2022/04/01 15:14:00;;;;;;;;;18.75;16.50;;;;;;;;5067739;27;51107;-50
2022/04/01 15:16:44;;;;;;;;;25.25;15.75;;;;;;;;5071145;27;51104;-49
2022/04/01 15:19:30;;;;;;;;;23.50;17.00;;;;;;;;5074437;27;51171;-50
2022/04/01 15:22:14;;;;;;;;;18.00;17.00;;;;;;;;5085385;27;51119;-49
2022/04/01 15:24:59;;;;;;;;;18.75;16.00;;;;;;;;5072388;27;51070;-49
2022/04/01 15:27:44;;;;;;;;;22.00;14.25;;;;;;;;5067314;27;51330;-51
2022/04/01 15:30:49;;;;;;;;;20.25;17.00;;;;;;;;5076325;27;51254;-49
2022/04/01 15:33:46;;;;;;;;;21.75;18.00;;;;;;;;5080776;27;51176;-47
2022/04/01 15:36:46;;;;;;;;;28.00;17.00;;;;;;;;5081093;27;51165;-50
2022/04/01 15:39:41;;;;;;;;;22.00;17.00;;;;;;;;5080715;27;51185;-52
2022/04/01 15:42:28;;;;;;;;;21.50;15.75;;;;;;;;5080974;27;51125;-50
2022/04/01 15:45:42;;;;;;;;;26.75;15.50;;;;;;;;5080679;27;51346;-49
2022/04/01 15:48:26;;;;;;;;;26.50;14.50;;;;;;;;5071649;27;51085;-49
2022/04/01 15:51:14;;;;;;;;;21.50;17.50;;;;;;;;5080236;27;51195;-48
2022/04/01 15:53:59;;;;;;;;;19.25;15.00;;;;;;;;5080690;27;51037;-51
2022/04/01 15:56:44;;;;;;;;;24.00;16.25;;;;;;;;5080833;27;51418;-48
2022/04/01 15:59:34;;;;;;;;;25.50;19.50;;;;;;;;5080384;27;51034;-49
2022/04/01 16:02:36;;;;;;;;;21.25;16.00;;;;;;;;5080455;27;51129;-49
2022/04/01 16:05:27;;;;;;;;;19.75;16.25;;;;;;;;5075767;27;51256;-48
2022/04/01 16:08:12;;;;;;;;;22.00;16.00;;;;;;;;5078679;27;51108;-48
2022/04/01 16:11:01;;;;;;;;;18.50;15.00;;;;;;;;5080003;27;51491;-50
2022/04/01 16:13:54;;;;;;;;;18.00;13.25;;;;;;;;5079188;27;51178;-51
2022/04/01 16:17:04;;;;;;;;;16.75;12.50;;;;;;;;5078980;27;51142;-52
2022/04/01 16:19:50;;;;;;;;;25.00;14.75;;;;;;;;5080386;27;51125;-49
2022/04/01 16:22:37;;;;;;;;;15.75;14.00;;;;;;;;5079844;27;51040;-50
2022/04/01 16:25:43;;;;;;;;;25.00;17.50;;;;;;;;5078812;27;51362;-50
2022/04/01 16:28:35;;;;;;;;;19.00;14.25;;;;;;;;5078293;27;51145;-54
2022/04/01 16:31:23;;;;;;;;;20.50;16.25;;;;;;;;5077438;27;51239;-53
2022/04/01 16:34:09;;;;;;;;;17.25;13.75;;;;;;;;5080603;27;51101;-49
2022/04/01 16:37:03;;;;;;;;;22.00;18.00;;;;;;;;5076261;27;50948;-49
2022/04/01 16:39:49;;;;;;;;;23.50;13.50;;;;;;;;5079250;27;51054;-50
2022/04/01 16:42:50;;;;;;;;;20.75;13.75;;;;;;;;5076592;27;51046;-48
2022/04/01 16:45:37;;;;;;;;;22.00;14.00;;;;;;;;5067750;27;51129;-48
2022/04/01 16:48:21;;;;;;;;;15.00;14.75;;;;;;;;5074703;27;51080;-50
2022/04/01 16:51:07;;;;;;;;;17.75;12.75;;;;;;;;5078185;27;51128;-51
2022/04/01 16:53:51;;;;;;;;;25.00;17.75;;;;;;;;5076361;27;51138;-49
2022/04/01 16:56:36;;;;;;;;;18.00;13.25;;;;;;;;5076607;27;51226;-50